createdAt,value
2019-05-23T00:01:50.778Z,100016.70
2019-05-23T00:04:35.684Z,100011.48
2019-05-23T00:07:20.788Z,100016.89
2019-05-23T00:10:05.869Z,100019.38
2019-05-23T00:12:34.393Z,100015.73
2019-05-23T00:15:02.970Z,100023.31
2019-05-23T00:17:31.568Z,100022.38
2019-05-23T00:19:58.571Z,100025.69
2019-05-23T00:22:25.490Z,100025.25
2019-05-23T00:24:52.371Z,100020.13
2019-05-23T00:27:19.319Z,100015.30
2019-05-23T00:29:46.261Z,100024.48
2019-05-23T00:32:13.148Z,100016.28
2019-05-23T00:34:40.052Z,100025.19
2019-05-23T00:37:06.993Z,100019.26
2019-05-23T00:39:33.866Z,100023.59
2019-05-23T00:42:00.763Z,100021.41
2019-05-23T00:44:27.737Z,100026.53
2019-05-23T00:46:54.671Z,100029.52
2019-05-23T00:49:21.613Z,100032.45
2019-05-23T00:51:48.473Z,100032.02
2019-05-23T00:54:15.384Z,100038.48
2019-05-23T00:56:42.642Z,100042.70
2019-05-23T00:59:24.454Z,100040.02
2019-05-23T01:01:39.310Z,100037.27
2019-05-23T01:04:06.170Z,100044.76
2019-05-23T01:06:33.062Z,100040.92
2019-05-23T01:09:00.031Z,100043.48
2019-05-23T01:11:26.984Z,100044.66
2019-05-23T01:13:53.967Z,100045.89
2019-05-23T01:16:21.878Z,100054.30
2019-05-23T01:18:48.883Z,100046.09
2019-05-23T01:21:15.869Z,100054.29
2019-05-23T01:23:42.771Z,100049.36
2019-05-23T01:26:09.720Z,100048.79
2019-05-23T01:28:36.686Z,100041.86
2019-05-23T01:31:03.553Z,100046.23
2019-05-23T01:33:30.420Z,100042.06
2019-05-23T01:35:57.335Z,100042.96
2019-05-23T01:38:24.313Z,100037.03
2019-05-23T01:40:51.197Z,100035.32
2019-05-23T01:43:18.151Z,100034.80
2019-05-23T01:45:45.538Z,100036.08
2019-05-23T01:48:12.498Z,100038.55
2019-05-23T01:50:39.395Z,100039.12
2019-05-23T01:53:06.350Z,100037.22
2019-05-23T01:55:33.221Z,100038.88
2019-05-23T01:58:00.102Z,100041.77
2019-05-23T02:00:26.997Z,100043.38
2019-05-23T02:02:54.015Z,100049.41
2019-05-23T02:05:20.909Z,100046.09
2019-05-23T02:07:47.768Z,100042.81
2019-05-23T02:10:14.660Z,100044.47
2019-05-23T02:12:41.558Z,100042.62
2019-05-23T02:15:08.521Z,100048.36
2019-05-23T02:17:35.481Z,100040.97
2019-05-23T02:20:02.465Z,100040.11
2019-05-23T02:22:29.393Z,100036.36
2019-05-23T02:24:56.297Z,100038.94
2019-05-23T02:27:23.265Z,100038.98
2019-05-23T02:29:50.240Z,100042.14
2019-05-23T02:32:17.193Z,100040.02
2019-05-23T02:34:44.144Z,100032.38
2019-05-23T02:37:11.010Z,100039.02
2019-05-23T02:39:37.927Z,100039.83
2019-05-23T02:42:04.898Z,100039.40
2019-05-23T02:44:31.836Z,100045.37
2019-05-23T02:46:58.798Z,100042.30
2019-05-23T02:49:25.739Z,100044.47
2019-05-23T02:51:52.610Z,100039.35
2019-05-23T02:54:19.576Z,100039.88
2019-05-23T02:56:46.528Z,100046.50
2019-05-23T02:59:13.396Z,100046.17
2019-05-23T03:01:40.382Z,100047.88
2019-05-23T03:04:07.285Z,100050.39
2019-05-23T03:06:34.186Z,100052.19
2019-05-23T03:09:01.153Z,100051.80
2019-05-23T03:11:28.105Z,100060.25
2019-05-23T03:13:55.062Z,100056.11
2019-05-23T03:16:21.979Z,100048.44
2019-05-23T03:18:48.910Z,100051.00
2019-05-23T03:21:15.813Z,100051.80
2019-05-23T03:23:42.748Z,100049.38
2019-05-23T03:26:09.715Z,100045.60
2019-05-23T03:28:36.661Z,100046.02
2019-05-23T03:31:26.875Z,100041.77
2019-05-23T03:33:32.227Z,100042.61
2019-05-23T03:35:59.193Z,100039.20
2019-05-23T03:38:26.134Z,100043.05
2019-05-23T03:40:53.029Z,100041.33
2019-05-23T03:43:19.994Z,100044.74
2019-05-23T03:45:46.972Z,100040.57
2019-05-23T03:48:13.975Z,100042.92
2019-05-23T03:50:40.906Z,100037.42
2019-05-23T03:53:07.851Z,100035.33
2019-05-23T03:55:35.109Z,100036.23
2019-05-23T03:58:01.998Z,100035.41
2019-05-23T04:00:28.952Z,100036.99
2019-05-23T04:02:55.902Z,100038.09
2019-05-23T04:05:23.066Z,100035.83
2019-05-23T04:07:49.944Z,100042.56
2019-05-23T04:10:16.814Z,100047.20
2019-05-23T04:12:43.789Z,100047.11
2019-05-23T04:15:10.752Z,100045.58
2019-05-23T04:17:37.714Z,100049.77
2019-05-23T04:20:04.669Z,100041.56
2019-05-23T04:22:31.638Z,100047.96
2019-05-23T04:25:01.944Z,100050.11
2019-05-23T04:27:27.200Z,100051.80
2019-05-23T04:29:54.149Z,100050.02
2019-05-23T04:32:21.036Z,100048.73
2019-05-23T04:34:48.268Z,100055.36
2019-05-23T04:37:15.176Z,100055.81
2019-05-23T04:39:42.143Z,100062.22
2019-05-23T04:42:09.103Z,100063.41
2019-05-23T04:44:36.354Z,100072.15
2019-05-23T04:47:03.231Z,100068.65
2019-05-23T04:49:30.175Z,100071.13
2019-05-23T04:51:57.081Z,100074.92
2019-05-23T04:54:24.068Z,100067.66
2019-05-23T04:56:51.921Z,100070.98
2019-05-23T04:59:18.903Z,100066.72
2019-05-23T05:01:45.840Z,100072.26
2019-05-23T05:04:12.797Z,100078.56
2019-05-23T05:06:39.743Z,100082.73
2019-05-23T05:09:06.693Z,100081.96
2019-05-23T05:11:33.665Z,100080.03
2019-05-23T05:14:00.554Z,100082.93
2019-05-23T05:16:27.501Z,100085.53
2019-05-23T05:18:55.426Z,100092.02
2019-05-23T05:21:22.392Z,100082.44
2019-05-23T05:23:49.305Z,100090.03
2019-05-23T05:26:16.262Z,100095.39
2019-05-23T05:28:43.250Z,100101.61
2019-05-23T05:31:10.228Z,100098.97
2019-05-23T05:33:37.313Z,100101.05
2019-05-23T05:36:04.611Z,100105.66
2019-05-23T05:38:31.822Z,100106.38
2019-05-23T05:40:58.715Z,100101.12
2019-05-23T05:43:25.919Z,100105.81
2019-05-23T05:45:52.809Z,100108.28
2019-05-23T05:48:19.709Z,100109.36
2019-05-23T05:50:46.594Z,100109.08
2019-05-23T05:53:13.936Z,100109.92
2019-05-23T05:55:40.955Z,100121.70
2019-05-23T05:58:07.847Z,100114.34
2019-05-23T06:00:34.861Z,100113.59
2019-05-23T06:03:05.231Z,100119.09
2019-05-23T06:05:30.673Z,100117.05
2019-05-23T06:07:57.676Z,100116.40
2019-05-23T06:10:24.676Z,100117.87
2019-05-23T06:12:51.541Z,100116.06
2019-05-23T06:15:18.526Z,100120.71
2019-05-23T06:17:45.492Z,100118.44
2019-05-23T06:20:12.369Z,100124.09
2019-05-23T06:22:39.231Z,100125.48
2019-05-23T06:25:06.159Z,100123.44
2019-05-23T06:27:33.151Z,100128.75
2019-05-23T06:30:00.156Z,100126.03
2019-05-23T06:32:27.077Z,100126.27
2019-05-23T06:34:53.947Z,100132.26
2019-05-23T06:37:20.822Z,100123.41
2019-05-23T06:39:47.751Z,100127.42
2019-05-23T06:42:14.963Z,100128.44
2019-05-23T06:44:41.881Z,100132.86
2019-05-23T06:47:08.824Z,100136.48
2019-05-23T06:49:35.787Z,100131.01
2019-05-23T06:52:02.646Z,100133.00
2019-05-23T06:54:29.521Z,100136.14
2019-05-23T06:56:56.389Z,100141.82
2019-05-23T06:59:23.273Z,100139.61
2019-05-23T07:01:50.208Z,100137.81
2019-05-23T07:04:17.120Z,100134.17
2019-05-23T07:06:44.315Z,100137.86
2019-05-23T07:09:11.311Z,100143.02
2019-05-23T07:11:38.311Z,100149.52
2019-05-23T07:14:05.774Z,100143.97
2019-05-23T07:16:32.662Z,100138.92
2019-05-23T07:18:59.862Z,100155.40
2019-05-23T07:21:26.817Z,100156.87
2019-05-23T07:23:53.787Z,100151.33
2019-05-23T07:26:20.657Z,100166.48
2019-05-23T07:28:47.553Z,100170.15
2019-05-23T07:31:14.423Z,100177.62
2019-05-23T07:33:59.841Z,100180.73
2019-05-23T07:36:09.944Z,100171.77
2019-05-23T07:38:36.899Z,100168.79
2019-05-23T07:41:03.775Z,100176.06
2019-05-23T07:43:30.792Z,100169.54
2019-05-23T07:45:57.779Z,100183.55
2019-05-23T07:48:24.700Z,100180.03
2019-05-23T07:50:51.582Z,100182.30
2019-05-23T07:53:18.484Z,100174.22
2019-05-23T07:55:45.443Z,100170.59
2019-05-23T07:58:13.719Z,100164.25
2019-05-23T08:00:40.905Z,100165.77
2019-05-23T08:03:07.841Z,100165.39
2019-05-23T08:05:34.733Z,100170.02
2019-05-23T08:08:01.636Z,100174.10
2019-05-23T08:10:33.845Z,100173.52
2019-05-23T08:12:57.135Z,100164.85
2019-05-23T08:15:24.074Z,100167.94
2019-05-23T08:17:50.949Z,100162.50
2019-05-23T08:20:17.813Z,100164.87
2019-05-23T08:22:45.779Z,100161.21
2019-05-23T08:25:12.718Z,100160.59
2019-05-23T08:27:39.669Z,100156.38
2019-05-23T08:30:06.555Z,100159.12
2019-05-23T08:32:34.548Z,100158.05
2019-05-23T08:35:01.645Z,100143.55
2019-05-23T08:37:28.765Z,100140.50
2019-05-23T08:39:55.713Z,100144.44
2019-05-23T08:42:22.610Z,100147.48
2019-05-23T08:44:50.614Z,100151.41
2019-05-23T08:47:18.581Z,100150.92
2019-05-23T08:49:45.476Z,100153.07
2019-05-23T08:52:12.422Z,100148.47
2019-05-23T08:54:39.375Z,100150.08
2019-05-23T08:57:06.264Z,100156.78
2019-05-23T08:59:33.201Z,100153.05
2019-05-23T09:02:00.099Z,100153.91
2019-05-23T09:04:27.065Z,100148.34
2019-05-23T09:06:53.952Z,100145.75
2019-05-23T09:09:29.573Z,100144.09
2019-05-23T09:11:49.430Z,100141.64
2019-05-23T09:14:16.417Z,100141.44
2019-05-23T09:16:43.354Z,100131.81
2019-05-23T09:19:10.217Z,100142.86
2019-05-23T09:21:37.102Z,100137.09
2019-05-23T09:24:03.987Z,100134.59
2019-05-23T09:26:30.936Z,100137.30
2019-05-23T09:28:57.936Z,100135.57
2019-05-23T09:31:24.868Z,100136.54
2019-05-23T09:33:51.775Z,100129.25
2019-05-23T09:36:18.698Z,100132.01
2019-05-23T09:38:45.695Z,100125.30
2019-05-23T09:41:12.633Z,100124.41
2019-05-23T09:43:39.504Z,100122.46
2019-05-23T09:46:06.382Z,100126.30
2019-05-23T09:48:33.400Z,100123.30
2019-05-23T09:51:00.348Z,100121.16
2019-05-23T09:53:27.586Z,100127.67
2019-05-23T09:55:55.918Z,100123.11
2019-05-23T09:58:23.438Z,100128.41
2019-05-23T10:00:50.380Z,100129.98
2019-05-23T10:03:17.244Z,100121.84
2019-05-23T10:05:44.487Z,100129.51
2019-05-23T10:08:11.478Z,100125.57
2019-05-23T10:10:38.418Z,100124.28
2019-05-23T10:13:05.315Z,100129.37
2019-05-23T10:15:32.259Z,100118.82
2019-05-23T10:18:00.985Z,100123.53
2019-05-23T10:20:27.841Z,100125.41
2019-05-23T10:22:54.811Z,100127.42
2019-05-23T10:25:21.708Z,100120.12
2019-05-23T10:27:49.037Z,100127.73
2019-05-23T10:30:15.912Z,100121.61
2019-05-23T10:32:42.852Z,100126.13
2019-05-23T10:35:09.825Z,100124.98
2019-05-23T10:37:36.733Z,100120.83
2019-05-23T10:40:04.684Z,100128.08
2019-05-23T10:42:31.614Z,100123.03
2019-05-23T10:44:58.573Z,100110.81
2019-05-23T10:47:25.841Z,100115.42
2019-05-23T10:49:52.715Z,100118.06
2019-05-23T10:52:19.617Z,100111.69
2019-05-23T10:54:46.477Z,100107.95
2019-05-23T10:57:13.363Z,100105.37
2019-05-23T10:59:40.233Z,100103.08
2019-05-23T11:02:07.177Z,100096.25
2019-05-23T11:04:34.054Z,100100.18
2019-05-23T11:07:01.906Z,100087.66
2019-05-23T11:09:38.099Z,100090.03
2019-05-23T11:11:57.842Z,100091.62
2019-05-23T11:14:24.809Z,100097.07
2019-05-23T11:16:51.771Z,100088.89
2019-05-23T11:19:18.715Z,100088.88
2019-05-23T11:21:45.621Z,100093.97
2019-05-23T11:24:12.554Z,100094.04
2019-05-23T11:26:39.507Z,100089.40
2019-05-23T11:29:06.487Z,100074.70
2019-05-23T11:31:33.420Z,100079.47
2019-05-23T11:34:00.470Z,100086.17
2019-05-23T11:36:35.669Z,100085.59
2019-05-23T11:38:56.713Z,100078.30
2019-05-23T11:41:23.583Z,100087.06
2019-05-23T11:43:51.933Z,100072.13
2019-05-23T11:46:18.880Z,100070.61
2019-05-23T11:48:46.117Z,100069.47
2019-05-23T11:51:12.982Z,100071.91
2019-05-23T11:53:39.943Z,100072.78
2019-05-23T11:56:08.852Z,100070.06
2019-05-23T11:58:35.826Z,100061.75
2019-05-23T12:01:02.773Z,100072.92
2019-05-23T12:03:29.716Z,100067.14
2019-05-23T12:05:56.664Z,100069.34
2019-05-23T12:08:23.614Z,100061.40
2019-05-23T12:10:50.882Z,100060.05
2019-05-23T12:13:17.775Z,100059.88
2019-05-23T12:15:44.654Z,100053.95
2019-05-23T12:18:11.555Z,100053.25
2019-05-23T12:20:38.501Z,100054.53
2019-05-23T12:23:10.836Z,100050.37
2019-05-23T12:25:34.617Z,100045.78
2019-05-23T12:28:01.635Z,100046.15
2019-05-23T12:30:28.647Z,100046.15
2019-05-23T12:32:55.733Z,100035.00
2019-05-23T12:35:24.126Z,100037.50
2019-05-23T12:37:51.002Z,100042.14
2019-05-23T12:40:17.959Z,100037.77
2019-05-23T12:42:44.828Z,100042.12
2019-05-23T12:45:11.884Z,100048.79
2019-05-23T12:47:38.864Z,100040.28
2019-05-23T12:50:05.821Z,100041.34
2019-05-23T12:52:33.093Z,100029.97
2019-05-23T12:55:00.038Z,100035.48
2019-05-23T12:57:27.225Z,100024.73
2019-05-23T12:59:54.274Z,100033.47
2019-05-23T13:02:21.246Z,100030.75
2019-05-23T13:04:48.242Z,100030.45
2019-05-23T13:07:15.326Z,100024.82
2019-05-23T13:09:42.831Z,100017.02
2019-05-23T13:12:09.785Z,100018.78
2019-05-23T13:14:36.669Z,100027.17
2019-05-23T13:17:03.627Z,100019.87
2019-05-23T13:19:30.629Z,100011.66
2019-05-23T13:21:57.618Z,100013.16
2019-05-23T13:24:24.623Z,100014.38
2019-05-23T13:26:51.699Z,100006.58
2019-05-23T13:29:18.791Z,100009.64
2019-05-23T13:31:45.768Z,100010.34
2019-05-23T13:34:12.644Z,100010.64
2019-05-23T13:36:39.554Z,100007.18
2019-05-23T13:39:06.489Z,100006.92
2019-05-23T13:41:33.481Z,100006.18
2019-05-23T13:44:02.543Z,99997.67
2019-05-23T13:46:29.597Z,99989.17
2019-05-23T13:48:56.521Z,99989.03
2019-05-23T13:51:23.426Z,99993.44
2019-05-23T13:53:50.411Z,99996.02
2019-05-23T13:56:17.362Z,99991.52
2019-05-23T13:58:44.296Z,99992.41
2019-05-23T14:01:11.346Z,99983.72
2019-05-23T14:03:38.215Z,99982.22
2019-05-23T14:06:05.089Z,99986.30
2019-05-23T14:08:31.959Z,99982.52
2019-05-23T14:10:58.902Z,99987.85
2019-05-23T14:13:26.265Z,99982.22
2019-05-23T14:15:53.803Z,99978.23
2019-05-23T14:18:20.753Z,99972.76
2019-05-23T14:20:47.690Z,99974.38
2019-05-23T14:23:15.225Z,99973.86
2019-05-23T14:25:42.504Z,99972.90
2019-05-23T14:28:09.480Z,99965.38
2019-05-23T14:30:36.407Z,99967.38
2019-05-23T14:33:03.333Z,99968.14
2019-05-23T14:35:30.349Z,99964.34
2019-05-23T14:37:57.721Z,99962.29
2019-05-23T14:40:24.732Z,99970.25
2019-05-23T14:42:53.147Z,99967.52
2019-05-23T14:45:20.329Z,99963.06
2019-05-23T14:47:47.210Z,99956.44
2019-05-23T14:50:14.078Z,99961.38
2019-05-23T14:52:40.971Z,99958.24
2019-05-23T14:55:10.483Z,99960.75
2019-05-23T14:57:36.780Z,99963.73
2019-05-23T15:00:03.739Z,99963.33
2019-05-23T15:02:30.723Z,99960.82
2019-05-23T15:04:57.623Z,99956.52
2019-05-23T15:07:24.574Z,99961.73
2019-05-23T15:09:51.519Z,99966.97
2019-05-23T15:12:18.395Z,99964.61
2019-05-23T15:14:45.623Z,99962.87
2019-05-23T15:17:12.584Z,99958.94
2019-05-23T15:19:44.862Z,99960.30
2019-05-23T15:22:08.042Z,99957.03
2019-05-23T15:24:34.996Z,99965.31
2019-05-23T15:27:02.040Z,99964.51
2019-05-23T15:29:29.517Z,99969.95
2019-05-23T15:32:02.526Z,99961.45
2019-05-23T15:34:25.206Z,99962.05
2019-05-23T15:36:53.882Z,99958.69
2019-05-23T15:39:20.775Z,99957.03
2019-05-23T15:41:48.377Z,99953.94
2019-05-23T15:44:25.889Z,99954.53
2019-05-23T15:46:43.859Z,99949.38
2019-05-23T15:49:11.162Z,99948.53
2019-05-23T15:51:38.065Z,99952.72
2019-05-23T15:54:05.027Z,99957.80
2019-05-23T15:56:31.954Z,99950.73
2019-05-23T15:58:59.162Z,99952.47
2019-05-23T16:01:26.122Z,99948.09
2019-05-23T16:03:53.130Z,99953.50
2019-05-23T16:06:20.001Z,99945.70
2019-05-23T16:08:46.881Z,99947.42
2019-05-23T16:11:17.316Z,99953.87
2019-05-23T16:13:42.408Z,99944.22
2019-05-23T16:16:09.331Z,99944.00
2019-05-23T16:18:37.670Z,99936.27
2019-05-23T16:21:04.776Z,99945.03
2019-05-23T16:23:31.734Z,99943.23
2019-05-23T16:25:58.706Z,99942.83
2019-05-23T16:28:25.637Z,99942.38
2019-05-23T16:30:52.514Z,99944.73
2019-05-23T16:33:19.396Z,99942.02
2019-05-23T16:35:46.289Z,99942.86
2019-05-23T16:38:14.191Z,99946.95
2019-05-23T16:40:41.148Z,99943.23
2019-05-23T16:43:08.085Z,99943.78
2019-05-23T16:45:34.970Z,99941.90
2019-05-23T16:48:01.859Z,99941.75
2019-05-23T16:50:28.825Z,99944.55
2019-05-23T16:52:55.792Z,99941.53
2019-05-23T16:55:22.749Z,99944.92
2019-05-23T16:57:49.630Z,99943.63
2019-05-23T17:00:16.566Z,99941.45
2019-05-23T17:02:43.558Z,99947.91
2019-05-23T17:05:11.128Z,99943.27
2019-05-23T17:07:38.103Z,99945.07
2019-05-23T17:10:08.808Z,99943.41
2019-05-23T17:12:33.595Z,99944.84
2019-05-23T17:15:00.646Z,99948.86
2019-05-23T17:17:49.130Z,99946.58
2019-05-23T17:19:56.443Z,99943.23
2019-05-23T17:22:23.331Z,99945.03
2019-05-23T17:24:50.272Z,99948.37
2019-05-23T17:27:17.350Z,99947.46
2019-05-23T17:29:44.406Z,99944.11
2019-05-23T17:32:11.410Z,99943.74
2019-05-23T17:34:38.478Z,99935.72
2019-05-23T17:37:05.883Z,99946.84
2019-05-23T17:39:33.539Z,99940.94
2019-05-23T17:42:00.593Z,99943.52
2019-05-23T17:44:27.553Z,99942.74
2019-05-23T17:46:54.834Z,99942.74
2019-05-23T17:49:22.014Z,99946.16
2019-05-23T17:51:49.022Z,99940.31
2019-05-23T17:54:15.970Z,99940.45
2019-05-23T17:56:43.067Z,99937.73
2019-05-23T17:59:10.194Z,99937.39
2019-05-23T18:01:37.132Z,99938.34
2019-05-23T18:04:04.080Z,99938.92
2019-05-23T18:06:31.110Z,99936.50
2019-05-23T18:08:58.341Z,99934.96
2019-05-23T18:11:25.698Z,99930.88
2019-05-23T18:13:52.944Z,99936.59
2019-05-23T18:16:19.914Z,99933.58
2019-05-23T18:18:46.856Z,99939.11
2019-05-23T18:21:14.717Z,99942.58
2019-05-23T18:23:41.672Z,99941.56
2019-05-23T18:26:09.545Z,99937.03
2019-05-23T18:28:36.876Z,99934.66
2019-05-23T18:31:07.506Z,99941.44
2019-05-23T18:33:32.410Z,99939.05
2019-05-23T18:35:59.371Z,99941.98
2019-05-23T18:38:26.725Z,99947.04
2019-05-23T18:41:04.158Z,99949.88
2019-05-23T18:43:23.625Z,99946.88
2019-05-23T18:45:50.532Z,99950.25
2019-05-23T18:48:17.497Z,99950.33
2019-05-23T18:50:44.393Z,99951.80
2019-05-23T18:53:11.373Z,99953.79
2019-05-23T18:55:40.045Z,99963.08
2019-05-23T18:58:07.019Z,99961.64
2019-05-23T19:00:33.906Z,99967.30
2019-05-23T19:03:01.821Z,99970.70
2019-05-23T19:05:28.747Z,99969.14
2019-05-23T19:07:55.708Z,99974.16
2019-05-23T19:10:22.631Z,99972.13
2019-05-23T19:12:49.563Z,99977.84
2019-05-23T19:15:16.480Z,99974.73
2019-05-23T19:17:43.372Z,99977.23
2019-05-23T19:20:10.309Z,99975.02
2019-05-23T19:22:38.205Z,99974.61
2019-05-23T19:25:05.160Z,99980.25
2019-05-23T19:27:32.194Z,99981.70
2019-05-23T19:29:59.145Z,99983.35
2019-05-23T19:32:26.478Z,99985.16
2019-05-23T19:34:53.365Z,99983.95
2019-05-23T19:37:20.243Z,99982.83
2019-05-23T19:39:47.148Z,99982.89
2019-05-23T19:42:14.102Z,99980.36
2019-05-23T19:44:41.063Z,99978.45
2019-05-23T19:47:07.926Z,99973.92
2019-05-23T19:49:34.820Z,99975.40
2019-05-23T19:52:02.035Z,99975.40
2019-05-23T19:54:29.274Z,99975.95
2019-05-23T19:56:56.163Z,99974.41
2019-05-23T19:59:23.365Z,99971.20
2019-05-23T20:01:50.239Z,99975.27
2019-05-23T20:04:17.482Z,99976.63
2019-05-23T20:06:44.441Z,99967.38
2019-05-23T20:09:11.319Z,99968.11
2019-05-23T20:11:53.251Z,99968.84
2019-05-23T20:14:06.833Z,99966.70
2019-05-23T20:16:33.764Z,99967.36
2019-05-23T20:19:00.640Z,99962.94
2019-05-23T20:21:27.535Z,99961.67
2019-05-23T20:23:54.465Z,99962.23
2019-05-23T20:26:21.614Z,99960.05
2019-05-23T20:28:48.786Z,99961.50
2019-05-23T20:31:15.719Z,99963.20
2019-05-23T20:33:42.625Z,99965.37
2019-05-23T20:36:12.264Z,99967.12
2019-05-23T20:38:38.518Z,99960.42
2019-05-23T20:41:05.778Z,99957.14
2019-05-23T20:43:33.588Z,99961.78
2019-05-23T20:46:00.876Z,99961.27
2019-05-23T20:48:27.976Z,99960.36
2019-05-23T20:50:54.993Z,99961.34
2019-05-23T20:53:21.964Z,99957.04
2019-05-23T20:55:48.908Z,99948.70
2019-05-23T20:58:15.867Z,99951.84
2019-05-23T21:00:43.165Z,99949.20
2019-05-23T21:03:10.101Z,99945.34
2019-05-23T21:05:37.350Z,99946.19
2019-05-23T21:08:04.219Z,99948.39
2019-05-23T21:10:31.128Z,99946.77
2019-05-23T21:12:58.060Z,99949.92
2019-05-23T21:15:25.445Z,99945.31
2019-05-23T21:17:52.901Z,99947.18
2019-05-23T21:20:19.766Z,99945.70
2019-05-23T21:22:46.668Z,99941.97
2019-05-23T21:25:13.973Z,99941.73
2019-05-23T21:27:41.204Z,99937.61
2019-05-23T21:30:08.108Z,99947.02
2019-05-23T21:32:35.050Z,99948.04
2019-05-23T21:35:02.255Z,99946.31
2019-05-23T21:37:30.429Z,99947.86
2019-05-23T21:39:57.379Z,99950.62
2019-05-23T21:42:24.256Z,99943.20
2019-05-23T21:44:51.115Z,99949.44
2019-05-23T21:47:18.087Z,99954.83
2019-05-23T21:49:44.959Z,99960.88
2019-05-23T21:52:11.863Z,99957.34
2019-05-23T21:54:38.804Z,99951.74
2019-05-23T21:57:05.663Z,99955.19
2019-05-23T21:59:32.529Z,99954.47
2019-05-23T22:01:59.410Z,99955.75
2019-05-23T22:04:26.399Z,99955.78
2019-05-23T22:06:55.659Z,99953.27
2019-05-23T22:09:21.935Z,99956.56
2019-05-23T22:11:48.879Z,99953.52
2019-05-23T22:14:15.745Z,99949.80
2019-05-23T22:16:43.705Z,99956.41
2019-05-23T22:19:10.669Z,99951.95
2019-05-23T22:21:37.753Z,99956.67
2019-05-23T22:24:04.690Z,99960.23
2019-05-23T22:26:31.883Z,99958.95
2019-05-23T22:28:59.822Z,99956.49
2019-05-23T22:31:26.708Z,99951.59
2019-05-23T22:33:53.713Z,99949.52
2019-05-23T22:36:20.657Z,99942.20
2019-05-23T22:38:47.529Z,99941.59
2019-05-23T22:41:14.698Z,99933.77
2019-05-23T22:43:41.656Z,99942.48
2019-05-23T22:46:09.749Z,99942.30
2019-05-23T22:48:36.730Z,99939.45
2019-05-23T22:51:03.695Z,99934.17
2019-05-23T22:53:30.569Z,99940.05
2019-05-23T22:55:57.445Z,99940.92
2019-05-23T22:58:24.412Z,99936.31
2019-05-23T23:00:51.346Z,99936.86
2019-05-23T23:03:18.233Z,99929.72
2019-05-23T23:05:46.229Z,99932.34
2019-05-23T23:08:13.170Z,99927.15
2019-05-23T23:10:40.060Z,99928.87
2019-05-23T23:13:07.377Z,99931.35
2019-05-23T23:15:34.266Z,99930.01
2019-05-23T23:18:01.137Z,99928.31
2019-05-23T23:20:28.116Z,99931.91
2019-05-23T23:22:55.051Z,99937.21
2019-05-23T23:25:22.009Z,99933.63
2019-05-23T23:27:48.991Z,99930.41
2019-05-23T23:30:15.943Z,99927.05
2019-05-23T23:32:42.835Z,99927.05
2019-05-23T23:35:09.802Z,99925.89
2019-05-23T23:37:36.758Z,99922.55
2019-05-23T23:40:03.774Z,99919.83
2019-05-23T23:42:30.686Z,99917.97
2019-05-23T23:44:58.526Z,99922.01
2019-05-23T23:47:25.815Z,99924.98
2019-05-23T23:49:52.696Z,99922.64
2019-05-23T23:52:19.591Z,99917.20
2019-05-23T23:54:46.543Z,99923.04
2019-05-23T23:57:13.405Z,99924.16
2019-05-23T23:59:40.649Z,99919.32
